sensor_id;sensor_type;location;lat;lon;timestamp;P1;durP1;ratioP1;P2;durP2;ratioP2
15398;SDS011;7797;51.428;6.756;2023-09-30T00:00:13;8.27;;;3.47;;
15398;SDS011;7797;51.428;6.756;2023-09-30T00:02:40;7.97;;;3.67;;
15398;SDS011;7797;51.428;6.756;2023-09-30T00:05:07;5.77;;;3.60;;
15398;SDS011;7797;51.428;6.756;2023-09-30T00:07:34;5.73;;;3.27;;
15398;SDS011;7797;51.428;6.756;2023-09-30T00:10:01;6.97;;;3.70;;
15398;SDS011;7797;51.428;6.756;2023-09-30T00:12:29;8.07;;;3.57;;
15398;SDS011;7797;51.428;6.756;2023-09-30T00:14:56;6.23;;;3.87;;
15398;SDS011;7797;51.428;6.756;2023-09-30T00:17:23;5.97;;;3.30;;
15398;SDS011;7797;51.428;6.756;2023-09-30T00:19:49;8.20;;;4.13;;
15398;SDS011;7797;51.428;6.756;2023-09-30T00:22:16;6.70;;;3.50;;
15398;SDS011;7797;51.428;6.756;2023-09-30T00:24:43;5.37;;;3.40;;
15398;SDS011;7797;51.428;6.756;2023-09-30T00:27:10;7.77;;;3.47;;
15398;SDS011;7797;51.428;6.756;2023-09-30T00:29:37;6.17;;;3.50;;
15398;SDS011;7797;51.428;6.756;2023-09-30T00:32:04;6.00;;;3.20;;
15398;SDS011;7797;51.428;6.756;2023-09-30T00:34:36;8.90;;;3.43;;
15398;SDS011;7797;51.428;6.756;2023-09-30T00:37:03;6.67;;;3.93;;
15398;SDS011;7797;51.428;6.756;2023-09-30T00:39:31;5.60;;;3.50;;
15398;SDS011;7797;51.428;6.756;2023-09-30T00:41:59;6.87;;;3.37;;
15398;SDS011;7797;51.428;6.756;2023-09-30T00:44:26;7.27;;;3.87;;
15398;SDS011;7797;51.428;6.756;2023-09-30T00:46:53;7.00;;;3.47;;
15398;SDS011;7797;51.428;6.756;2023-09-30T00:49:25;4.50;;;3.00;;
15398;SDS011;7797;51.428;6.756;2023-09-30T00:51:52;5.63;;;3.80;;
15398;SDS011;7797;51.428;6.756;2023-09-30T00:54:21;8.57;;;3.83;;
15398;SDS011;7797;51.428;6.756;2023-09-30T00:56:48;7.60;;;3.73;;
15398;SDS011;7797;51.428;6.756;2023-09-30T00:59:17;7.10;;;3.83;;
15398;SDS011;7797;51.428;6.756;2023-09-30T01:01:44;6.00;;;3.97;;
15398;SDS011;7797;51.428;6.756;2023-09-30T01:04:12;6.13;;;3.67;;
15398;SDS011;7797;51.428;6.756;2023-09-30T01:06:39;6.67;;;3.80;;
15398;SDS011;7797;51.428;6.756;2023-09-30T01:09:07;6.97;;;4.17;;
15398;SDS011;7797;51.428;6.756;2023-09-30T01:11:35;9.40;;;4.30;;
15398;SDS011;7797;51.428;6.756;2023-09-30T01:14:02;8.40;;;4.17;;
15398;SDS011;7797;51.428;6.756;2023-09-30T01:16:29;6.37;;;4.20;;
15398;SDS011;7797;51.428;6.756;2023-09-30T01:18:55;7.53;;;3.70;;
15398;SDS011;7797;51.428;6.756;2023-09-30T01:21:22;7.40;;;3.63;;
15398;SDS011;7797;51.428;6.756;2023-09-30T01:23:50;5.70;;;3.60;;
15398;SDS011;7797;51.428;6.756;2023-09-30T01:26:16;8.13;;;4.03;;
15398;SDS011;7797;51.428;6.756;2023-09-30T01:28:43;9.20;;;4.40;;
15398;SDS011;7797;51.428;6.756;2023-09-30T01:31:10;9.33;;;4.13;;
15398;SDS011;7797;51.428;6.756;2023-09-30T01:33:37;6.80;;;4.37;;
15398;SDS011;7797;51.428;6.756;2023-09-30T01:36:05;5.10;;;3.43;;
15398;SDS011;7797;51.428;6.756;2023-09-30T01:38:32;8.67;;;3.97;;
15398;SDS011;7797;51.428;6.756;2023-09-30T01:40:59;7.50;;;3.73;;
15398;SDS011;7797;51.428;6.756;2023-09-30T01:43:29;8.50;;;4.43;;
15398;SDS011;7797;51.428;6.756;2023-09-30T01:45:56;7.47;;;4.10;;
15398;SDS011;7797;51.428;6.756;2023-09-30T01:48:25;10.07;;;4.53;;
15398;SDS011;7797;51.428;6.756;2023-09-30T01:50:51;8.83;;;3.83;;
15398;SDS011;7797;51.428;6.756;2023-09-30T01:53:18;9.30;;;3.87;;
15398;SDS011;7797;51.428;6.756;2023-09-30T01:55:45;9.50;;;4.50;;
15398;SDS011;7797;51.428;6.756;2023-09-30T01:58:12;7.33;;;3.70;;
15398;SDS011;7797;51.428;6.756;2023-09-30T02:00:39;7.23;;;4.17;;
15398;SDS011;7797;51.428;6.756;2023-09-30T02:03:06;8.50;;;4.13;;
15398;SDS011;7797;51.428;6.756;2023-09-30T02:05:34;7.80;;;4.53;;
15398;SDS011;7797;51.428;6.756;2023-09-30T02:08:01;6.17;;;4.00;;
15398;SDS011;7797;51.428;6.756;2023-09-30T02:10:32;6.63;;;4.20;;
15398;SDS011;7797;51.428;6.756;2023-09-30T02:13:02;7.37;;;4.27;;
15398;SDS011;7797;51.428;6.756;2023-09-30T02:15:33;5.77;;;3.90;;
15398;SDS011;7797;51.428;6.756;2023-09-30T02:18:00;6.03;;;4.10;;
15398;SDS011;7797;51.428;6.756;2023-09-30T02:20:27;7.27;;;4.43;;
15398;SDS011;7797;51.428;6.756;2023-09-30T02:22:57;5.77;;;3.57;;
15398;SDS011;7797;51.428;6.756;2023-09-30T02:25:25;9.83;;;4.73;;
15398;SDS011;7797;51.428;6.756;2023-09-30T02:27:52;7.13;;;4.40;;
15398;SDS011;7797;51.428;6.756;2023-09-30T02:30:18;5.07;;;3.83;;
15398;SDS011;7797;51.428;6.756;2023-09-30T02:32:45;7.13;;;4.13;;
15398;SDS011;7797;51.428;6.756;2023-09-30T02:35:13;6.17;;;4.30;;
15398;SDS011;7797;51.428;6.756;2023-09-30T02:37:43;6.13;;;3.60;;
15398;SDS011;7797;51.428;6.756;2023-09-30T02:40:10;5.47;;;3.70;;
15398;SDS011;7797;51.428;6.756;2023-09-30T02:42:37;6.03;;;4.13;;
15398;SDS011;7797;51.428;6.756;2023-09-30T02:45:06;8.57;;;4.03;;
15398;SDS011;7797;51.428;6.756;2023-09-30T02:47:35;6.07;;;4.20;;
15398;SDS011;7797;51.428;6.756;2023-09-30T02:50:04;6.67;;;3.83;;
15398;SDS011;7797;51.428;6.756;2023-09-30T02:52:34;6.93;;;4.13;;
15398;SDS011;7797;51.428;6.756;2023-09-30T02:55:03;5.97;;;3.73;;
15398;SDS011;7797;51.428;6.756;2023-09-30T02:57:36;7.10;;;4.03;;
15398;SDS011;7797;51.428;6.756;2023-09-30T03:00:03;7.20;;;3.70;;
15398;SDS011;7797;51.428;6.756;2023-09-30T03:02:41;5.13;;;3.83;;
15398;SDS011;7797;51.428;6.756;2023-09-30T03:05:08;5.80;;;3.73;;
15398;SDS011;7797;51.428;6.756;2023-09-30T03:07:36;8.77;;;4.57;;
15398;SDS011;7797;51.428;6.756;2023-09-30T03:10:04;9.13;;;4.20;;
15398;SDS011;7797;51.428;6.756;2023-09-30T03:12:31;6.57;;;3.83;;
15398;SDS011;7797;51.428;6.756;2023-09-30T03:14:59;6.57;;;3.63;;
15398;SDS011;7797;51.428;6.756;2023-09-30T03:17:26;9.10;;;4.07;;
15398;SDS011;7797;51.428;6.756;2023-09-30T03:19:53;7.67;;;4.10;;
15398;SDS011;7797;51.428;6.756;2023-09-30T03:22:20;7.37;;;4.10;;
15398;SDS011;7797;51.428;6.756;2023-09-30T03:24:47;6.00;;;4.00;;
15398;SDS011;7797;51.428;6.756;2023-09-30T03:27:14;6.03;;;3.70;;
15398;SDS011;7797;51.428;6.756;2023-09-30T03:29:42;9.20;;;4.10;;
15398;SDS011;7797;51.428;6.756;2023-09-30T03:32:08;7.10;;;3.83;;
15398;SDS011;7797;51.428;6.756;2023-09-30T03:34:35;7.97;;;3.87;;
15398;SDS011;7797;51.428;6.756;2023-09-30T03:37:03;5.30;;;3.73;;
15398;SDS011;7797;51.428;6.756;2023-09-30T03:39:33;7.30;;;3.80;;
15398;SDS011;7797;51.428;6.756;2023-09-30T03:42:00;8.83;;;4.00;;
15398;SDS011;7797;51.428;6.756;2023-09-30T03:44:27;6.70;;;3.73;;
15398;SDS011;7797;51.428;6.756;2023-09-30T03:46:54;6.97;;;3.70;;
15398;SDS011;7797;51.428;6.756;2023-09-30T03:49:23;7.67;;;4.20;;
15398;SDS011;7797;51.428;6.756;2023-09-30T03:51:50;7.07;;;3.53;;
15398;SDS011;7797;51.428;6.756;2023-09-30T03:54:20;8.93;;;3.87;;
15398;SDS011;7797;51.428;6.756;2023-09-30T03:56:47;5.90;;;3.57;;
15398;SDS011;7797;51.428;6.756;2023-09-30T03:59:14;9.13;;;3.80;;
15398;SDS011;7797;51.428;6.756;2023-09-30T04:01:42;5.33;;;3.90;;
15398;SDS011;7797;51.428;6.756;2023-09-30T04:04:09;5.67;;;3.93;;
15398;SDS011;7797;51.428;6.756;2023-09-30T04:06:36;8.07;;;4.00;;
15398;SDS011;7797;51.428;6.756;2023-09-30T04:09:06;7.47;;;4.07;;
15398;SDS011;7797;51.428;6.756;2023-09-30T04:11:37;5.20;;;3.87;;
15398;SDS011;7797;51.428;6.756;2023-09-30T04:14:05;4.97;;;3.67;;
15398;SDS011;7797;51.428;6.756;2023-09-30T04:16:32;9.73;;;4.27;;
15398;SDS011;7797;51.428;6.756;2023-09-30T04:18:59;4.73;;;3.20;;
15398;SDS011;7797;51.428;6.756;2023-09-30T04:21:27;5.83;;;3.77;;
15398;SDS011;7797;51.428;6.756;2023-09-30T04:23:56;7.30;;;3.53;;
15398;SDS011;7797;51.428;6.756;2023-09-30T04:26:24;7.03;;;3.90;;
15398;SDS011;7797;51.428;6.756;2023-09-30T04:28:51;7.33;;;3.87;;
15398;SDS011;7797;51.428;6.756;2023-09-30T04:31:20;5.70;;;3.90;;
15398;SDS011;7797;51.428;6.756;2023-09-30T04:33:48;6.23;;;4.30;;
15398;SDS011;7797;51.428;6.756;2023-09-30T04:36:17;7.70;;;3.97;;
15398;SDS011;7797;51.428;6.756;2023-09-30T04:38:44;6.53;;;4.03;;
15398;SDS011;7797;51.428;6.756;2023-09-30T04:41:11;7.30;;;4.20;;
15398;SDS011;7797;51.428;6.756;2023-09-30T04:43:38;5.70;;;3.73;;
15398;SDS011;7797;51.428;6.756;2023-09-30T04:46:06;4.33;;;3.73;;
15398;SDS011;7797;51.428;6.756;2023-09-30T04:48:35;6.67;;;3.60;;
15398;SDS011;7797;51.428;6.756;2023-09-30T04:51:05;7.70;;;4.20;;
15398;SDS011;7797;51.428;6.756;2023-09-30T04:53:32;6.20;;;4.00;;
15398;SDS011;7797;51.428;6.756;2023-09-30T04:56:00;6.70;;;3.73;;
15398;SDS011;7797;51.428;6.756;2023-09-30T04:58:27;7.47;;;4.30;;
15398;SDS011;7797;51.428;6.756;2023-09-30T05:00:56;6.37;;;4.03;;
15398;SDS011;7797;51.428;6.756;2023-09-30T05:03:24;7.37;;;4.30;;
15398;SDS011;7797;51.428;6.756;2023-09-30T05:05:54;6.27;;;4.17;;
15398;SDS011;7797;51.428;6.756;2023-09-30T05:08:22;11.00;;;4.50;;
15398;SDS011;7797;51.428;6.756;2023-09-30T05:10:50;6.93;;;4.47;;
15398;SDS011;7797;51.428;6.756;2023-09-30T05:13:17;7.67;;;4.53;;
15398;SDS011;7797;51.428;6.756;2023-09-30T05:15:44;5.60;;;3.90;;
15398;SDS011;7797;51.428;6.756;2023-09-30T05:18:13;7.10;;;3.90;;
15398;SDS011;7797;51.428;6.756;2023-09-30T05:20:40;8.43;;;4.40;;
15398;SDS011;7797;51.428;6.756;2023-09-30T05:23:10;7.77;;;4.27;;
15398;SDS011;7797;51.428;6.756;2023-09-30T05:25:39;7.23;;;4.00;;
15398;SDS011;7797;51.428;6.756;2023-09-30T05:28:06;6.73;;;4.43;;
15398;SDS011;7797;51.428;6.756;2023-09-30T05:30:33;5.37;;;4.30;;
15398;SDS011;7797;51.428;6.756;2023-09-30T05:33:00;7.07;;;4.43;;
15398;SDS011;7797;51.428;6.756;2023-09-30T05:35:27;7.83;;;4.83;;
15398;SDS011;7797;51.428;6.756;2023-09-30T05:37:55;8.10;;;4.70;;
15398;SDS011;7797;51.428;6.756;2023-09-30T05:40:22;7.80;;;4.50;;
15398;SDS011;7797;51.428;6.756;2023-09-30T05:42:51;8.60;;;4.93;;
15398;SDS011;7797;51.428;6.756;2023-09-30T05:45:18;7.83;;;4.70;;
15398;SDS011;7797;51.428;6.756;2023-09-30T05:47:45;9.23;;;5.00;;
15398;SDS011;7797;51.428;6.756;2023-09-30T05:50:17;7.37;;;4.80;;
15398;SDS011;7797;51.428;6.756;2023-09-30T05:52:50;7.83;;;4.80;;
15398;SDS011;7797;51.428;6.756;2023-09-30T05:55:17;7.27;;;5.00;;
15398;SDS011;7797;51.428;6.756;2023-09-30T05:57:48;8.13;;;4.73;;
15398;SDS011;7797;51.428;6.756;2023-09-30T06:00:19;7.70;;;4.53;;
15398;SDS011;7797;51.428;6.756;2023-09-30T06:03:04;9.70;;;5.00;;
15398;SDS011;7797;51.428;6.756;2023-09-30T06:05:33;7.93;;;4.70;;
15398;SDS011;7797;51.428;6.756;2023-09-30T06:08:01;11.00;;;5.00;;
15398;SDS011;7797;51.428;6.756;2023-09-30T06:10:30;7.10;;;5.20;;
15398;SDS011;7797;51.428;6.756;2023-09-30T06:12:57;7.13;;;4.73;;
15398;SDS011;7797;51.428;6.756;2023-09-30T06:15:25;5.63;;;4.37;;
15398;SDS011;7797;51.428;6.756;2023-09-30T06:17:55;8.83;;;4.70;;
15398;SDS011;7797;51.428;6.756;2023-09-30T06:20:23;9.10;;;5.10;;
15398;SDS011;7797;51.428;6.756;2023-09-30T06:22:54;8.13;;;5.43;;
15398;SDS011;7797;51.428;6.756;2023-09-30T06:25:21;7.43;;;5.10;;
15398;SDS011;7797;51.428;6.756;2023-09-30T06:27:50;6.47;;;4.90;;
15398;SDS011;7797;51.428;6.756;2023-09-30T06:30:17;8.37;;;5.03;;
15398;SDS011;7797;51.428;6.756;2023-09-30T06:32:46;7.40;;;4.70;;
15398;SDS011;7797;51.428;6.756;2023-09-30T06:35:13;7.83;;;5.10;;
15398;SDS011;7797;51.428;6.756;2023-09-30T06:37:40;8.47;;;4.97;;
15398;SDS011;7797;51.428;6.756;2023-09-30T06:40:08;7.27;;;5.40;;
15398;SDS011;7797;51.428;6.756;2023-09-30T06:42:38;10.17;;;5.23;;
15398;SDS011;7797;51.428;6.756;2023-09-30T06:45:07;9.77;;;5.97;;
15398;SDS011;7797;51.428;6.756;2023-09-30T06:47:39;8.97;;;5.20;;
15398;SDS011;7797;51.428;6.756;2023-09-30T06:50:09;9.70;;;5.70;;
15398;SDS011;7797;51.428;6.756;2023-09-30T06:52:40;7.70;;;5.70;;
15398;SDS011;7797;51.428;6.756;2023-09-30T06:55:08;8.50;;;5.70;;
15398;SDS011;7797;51.428;6.756;2023-09-30T06:57:35;9.37;;;6.03;;
15398;SDS011;7797;51.428;6.756;2023-09-30T07:00:09;8.87;;;5.60;;
15398;SDS011;7797;51.428;6.756;2023-09-30T07:02:38;8.63;;;5.57;;
15398;SDS011;7797;51.428;6.756;2023-09-30T07:05:07;12.50;;;6.17;;
15398;SDS011;7797;51.428;6.756;2023-09-30T07:07:34;9.70;;;6.00;;
15398;SDS011;7797;51.428;6.756;2023-09-30T07:10:02;10.13;;;6.07;;
15398;SDS011;7797;51.428;6.756;2023-09-30T07:12:30;9.77;;;6.47;;
15398;SDS011;7797;51.428;6.756;2023-09-30T07:15:03;9.97;;;6.40;;
15398;SDS011;7797;51.428;6.756;2023-09-30T07:17:34;10.70;;;6.37;;
15398;SDS011;7797;51.428;6.756;2023-09-30T07:20:04;10.00;;;6.73;;
15398;SDS011;7797;51.428;6.756;2023-09-30T07:22:32;10.43;;;6.63;;
15398;SDS011;7797;51.428;6.756;2023-09-30T07:25:18;9.50;;;6.57;;
15398;SDS011;7797;51.428;6.756;2023-09-30T07:27:45;10.00;;;7.20;;
15398;SDS011;7797;51.428;6.756;2023-09-30T07:30:13;10.87;;;7.60;;
15398;SDS011;7797;51.428;6.756;2023-09-30T07:32:42;13.07;;;7.20;;
15398;SDS011;7797;51.428;6.756;2023-09-30T07:35:09;10.43;;;7.20;;
15398;SDS011;7797;51.428;6.756;2023-09-30T07:37:36;10.00;;;7.23;;
15398;SDS011;7797;51.428;6.756;2023-09-30T07:40:03;11.87;;;7.40;;
15398;SDS011;7797;51.428;6.756;2023-09-30T07:42:31;13.63;;;7.97;;
15398;SDS011;7797;51.428;6.756;2023-09-30T07:45:00;15.63;;;8.47;;
15398;SDS011;7797;51.428;6.756;2023-09-30T07:47:27;13.80;;;7.70;;
15398;SDS011;7797;51.428;6.756;2023-09-30T07:49:54;14.70;;;8.13;;
15398;SDS011;7797;51.428;6.756;2023-09-30T07:52:21;14.17;;;7.70;;
15398;SDS011;7797;51.428;6.756;2023-09-30T07:54:48;11.70;;;7.57;;
15398;SDS011;7797;51.428;6.756;2023-09-30T07:57:15;14.80;;;8.40;;
15398;SDS011;7797;51.428;6.756;2023-09-30T07:59:43;13.47;;;9.40;;
15398;SDS011;7797;51.428;6.756;2023-09-30T08:02:10;22.23;;;10.43;;
15398;SDS011;7797;51.428;6.756;2023-09-30T08:04:37;20.33;;;11.17;;
15398;SDS011;7797;51.428;6.756;2023-09-30T08:07:04;19.10;;;10.27;;
15398;SDS011;7797;51.428;6.756;2023-09-30T08:09:30;16.43;;;9.70;;
15398;SDS011;7797;51.428;6.756;2023-09-30T08:11:57;18.43;;;10.20;;
15398;SDS011;7797;51.428;6.756;2023-09-30T08:14:24;13.90;;;9.63;;
15398;SDS011;7797;51.428;6.756;2023-09-30T08:16:52;15.93;;;9.77;;
15398;SDS011;7797;51.428;6.756;2023-09-30T08:19:19;13.60;;;9.53;;
15398;SDS011;7797;51.428;6.756;2023-09-30T08:21:47;14.87;;;9.43;;
15398;SDS011;7797;51.428;6.756;2023-09-30T08:24:15;14.80;;;8.90;;
15398;SDS011;7797;51.428;6.756;2023-09-30T08:26:42;13.33;;;9.20;;
15398;SDS011;7797;51.428;6.756;2023-09-30T08:29:09;14.30;;;10.07;;
15398;SDS011;7797;51.428;6.756;2023-09-30T08:31:36;13.57;;;8.80;;
15398;SDS011;7797;51.428;6.756;2023-09-30T08:34:03;15.77;;;9.30;;
15398;SDS011;7797;51.428;6.756;2023-09-30T08:36:30;14.60;;;9.63;;
15398;SDS011;7797;51.428;6.756;2023-09-30T08:38:57;16.97;;;9.77;;
15398;SDS011;7797;51.428;6.756;2023-09-30T08:41:32;14.83;;;9.50;;
15398;SDS011;7797;51.428;6.756;2023-09-30T08:44:00;14.97;;;9.27;;
15398;SDS011;7797;51.428;6.756;2023-09-30T08:46:31;13.53;;;10.30;;
15398;SDS011;7797;51.428;6.756;2023-09-30T08:49:01;15.20;;;10.97;;
15398;SDS011;7797;51.428;6.756;2023-09-30T08:51:30;13.27;;;10.17;;
15398;SDS011;7797;51.428;6.756;2023-09-30T08:53:58;16.03;;;11.40;;
15398;SDS011;7797;51.428;6.756;2023-09-30T08:56:29;16.03;;;10.93;;
15398;SDS011;7797;51.428;6.756;2023-09-30T08:59:00;17.17;;;10.83;;
15398;SDS011;7797;51.428;6.756;2023-09-30T09:01:29;13.70;;;10.63;;
15398;SDS011;7797;51.428;6.756;2023-09-30T09:03:57;15.33;;;10.57;;
15398;SDS011;7797;51.428;6.756;2023-09-30T09:06:25;16.17;;;11.07;;
15398;SDS011;7797;51.428;6.756;2023-09-30T09:08:52;16.27;;;10.53;;
15398;SDS011;7797;51.428;6.756;2023-09-30T09:11:20;14.63;;;9.67;;
15398;SDS011;7797;51.428;6.756;2023-09-30T09:13:51;14.83;;;10.07;;
15398;SDS011;7797;51.428;6.756;2023-09-30T09:16:25;15.80;;;10.20;;
15398;SDS011;7797;51.428;6.756;2023-09-30T09:18:52;16.53;;;10.87;;
15398;SDS011;7797;51.428;6.756;2023-09-30T09:21:21;14.37;;;9.83;;
15398;SDS011;7797;51.428;6.756;2023-09-30T09:23:54;13.80;;;9.67;;
15398;SDS011;7797;51.428;6.756;2023-09-30T09:26:27;15.33;;;10.80;;
15398;SDS011;7797;51.428;6.756;2023-09-30T09:29:04;15.67;;;9.80;;
15398;SDS011;7797;51.428;6.756;2023-09-30T09:31:32;13.57;;;10.20;;
15398;SDS011;7797;51.428;6.756;2023-09-30T09:34:03;14.80;;;9.60;;
15398;SDS011;7797;51.428;6.756;2023-09-30T09:36:43;15.77;;;10.37;;
15398;SDS011;7797;51.428;6.756;2023-09-30T09:39:11;14.40;;;9.33;;
15398;SDS011;7797;51.428;6.756;2023-09-30T09:41:51;13.83;;;9.30;;
15398;SDS011;7797;51.428;6.756;2023-09-30T09:44:20;12.90;;;9.00;;
15398;SDS011;7797;51.428;6.756;2023-09-30T09:46:54;16.23;;;9.43;;
15398;SDS011;7797;51.428;6.756;2023-09-30T09:49:53;15.87;;;10.77;;
15398;SDS011;7797;51.428;6.756;2023-09-30T09:52:21;16.87;;;11.03;;
15398;SDS011;7797;51.428;6.756;2023-09-30T09:54:48;11.90;;;8.33;;
15398;SDS011;7797;51.428;6.756;2023-09-30T09:57:17;14.93;;;7.80;;
15398;SDS011;7797;51.428;6.756;2023-09-30T09:59:46;10.90;;;7.43;;
15398;SDS011;7797;51.428;6.756;2023-09-30T10:02:14;8.17;;;5.47;;
15398;SDS011;7797;51.428;6.756;2023-09-30T10:04:44;6.53;;;4.83;;
15398;SDS011;7797;51.428;6.756;2023-09-30T10:07:13;8.33;;;5.10;;
15398;SDS011;7797;51.428;6.756;2023-09-30T10:10:09;10.17;;;5.83;;
15398;SDS011;7797;51.428;6.756;2023-09-30T10:12:40;4.63;;;3.80;;
15398;SDS011;7797;51.428;6.756;2023-09-30T10:18:10;6.30;;;3.63;;
15398;SDS011;7797;51.428;6.756;2023-09-30T10:20:42;8.87;;;4.57;;
15398;SDS011;7797;51.428;6.756;2023-09-30T10:23:28;7.40;;;5.27;;
15398;SDS011;7797;51.428;6.756;2023-09-30T10:28:39;5.90;;;4.73;;
15398;SDS011;7797;51.428;6.756;2023-09-30T10:36:29;5.93;;;3.77;;
15398;SDS011;7797;51.428;6.756;2023-09-30T10:39:11;6.47;;;3.80;;
15398;SDS011;7797;51.428;6.756;2023-09-30T10:46:59;5.83;;;4.13;;
15398;SDS011;7797;51.428;6.756;2023-09-30T10:51:58;6.70;;;4.40;;
15398;SDS011;7797;51.428;6.756;2023-09-30T10:54:30;4.43;;;3.90;;
15398;SDS011;7797;51.428;6.756;2023-09-30T10:56:59;5.67;;;3.30;;
15398;SDS011;7797;51.428;6.756;2023-09-30T10:59:30;5.63;;;3.10;;
15398;SDS011;7797;51.428;6.756;2023-09-30T11:01:58;5.90;;;3.80;;
15398;SDS011;7797;51.428;6.756;2023-09-30T11:04:25;5.30;;;3.00;;
15398;SDS011;7797;51.428;6.756;2023-09-30T11:06:55;5.00;;;2.80;;
15398;SDS011;7797;51.428;6.756;2023-09-30T11:09:22;5.13;;;3.50;;
15398;SDS011;7797;51.428;6.756;2023-09-30T11:11:50;3.30;;;2.77;;
15398;SDS011;7797;51.428;6.756;2023-09-30T11:16:59;6.73;;;3.33;;
15398;SDS011;7797;51.428;6.756;2023-09-30T11:19:34;6.97;;;3.20;;
15398;SDS011;7797;51.428;6.756;2023-09-30T11:22:03;5.60;;;3.13;;
15398;SDS011;7797;51.428;6.756;2023-09-30T11:24:34;3.83;;;3.00;;
15398;SDS011;7797;51.428;6.756;2023-09-30T11:27:03;3.73;;;2.83;;
15398;SDS011;7797;51.428;6.756;2023-09-30T11:29:30;5.77;;;2.93;;
15398;SDS011;7797;51.428;6.756;2023-09-30T11:31:57;6.43;;;3.37;;
15398;SDS011;7797;51.428;6.756;2023-09-30T11:34:31;5.37;;;3.27;;
15398;SDS011;7797;51.428;6.756;2023-09-30T11:37:02;5.70;;;3.30;;
15398;SDS011;7797;51.428;6.756;2023-09-30T11:39:33;4.47;;;3.00;;
15398;SDS011;7797;51.428;6.756;2023-09-30T11:42:00;6.30;;;3.20;;
15398;SDS011;7797;51.428;6.756;2023-09-30T11:44:27;5.47;;;3.47;;
15398;SDS011;7797;51.428;6.756;2023-09-30T11:47:01;6.93;;;3.67;;
15398;SDS011;7797;51.428;6.756;2023-09-30T11:49:39;5.17;;;3.03;;
15398;SDS011;7797;51.428;6.756;2023-09-30T11:52:11;4.33;;;3.30;;
15398;SDS011;7797;51.428;6.756;2023-09-30T11:54:41;6.63;;;3.20;;
15398;SDS011;7797;51.428;6.756;2023-09-30T11:57:14;4.87;;;2.93;;
15398;SDS011;7797;51.428;6.756;2023-09-30T11:59:42;5.20;;;3.60;;
15398;SDS011;7797;51.428;6.756;2023-09-30T12:02:14;4.93;;;3.27;;
15398;SDS011;7797;51.428;6.756;2023-09-30T12:04:42;4.37;;;3.03;;
15398;SDS011;7797;51.428;6.756;2023-09-30T12:07:11;4.40;;;3.20;;
15398;SDS011;7797;51.428;6.756;2023-09-30T12:09:38;4.27;;;2.87;;
15398;SDS011;7797;51.428;6.756;2023-09-30T12:12:07;3.27;;;2.77;;
15398;SDS011;7797;51.428;6.756;2023-09-30T12:14:41;5.77;;;2.60;;
15398;SDS011;7797;51.428;6.756;2023-09-30T12:17:08;3.37;;;2.30;;
15398;SDS011;7797;51.428;6.756;2023-09-30T12:19:39;5.40;;;2.60;;
15398;SDS011;7797;51.428;6.756;2023-09-30T12:22:09;3.03;;;2.67;;
15398;SDS011;7797;51.428;6.756;2023-09-30T12:24:37;4.53;;;2.57;;
15398;SDS011;7797;51.428;6.756;2023-09-30T12:27:04;4.17;;;2.73;;
15398;SDS011;7797;51.428;6.756;2023-09-30T12:29:31;5.23;;;2.73;;
15398;SDS011;7797;51.428;6.756;2023-09-30T12:31:58;3.77;;;3.10;;
15398;SDS011;7797;51.428;6.756;2023-09-30T12:34:28;3.53;;;2.77;;
15398;SDS011;7797;51.428;6.756;2023-09-30T12:36:55;6.37;;;3.77;;
15398;SDS011;7797;51.428;6.756;2023-09-30T12:39:26;3.97;;;3.00;;
15398;SDS011;7797;51.428;6.756;2023-09-30T12:41:57;3.27;;;2.50;;
15398;SDS011;7797;51.428;6.756;2023-09-30T12:44:24;3.57;;;2.63;;
15398;SDS011;7797;51.428;6.756;2023-09-30T12:46:54;5.50;;;3.60;;
15398;SDS011;7797;51.428;6.756;2023-09-30T12:49:24;5.63;;;4.27;;
15398;SDS011;7797;51.428;6.756;2023-09-30T12:51:51;7.33;;;4.20;;
15398;SDS011;7797;51.428;6.756;2023-09-30T12:54:19;3.90;;;3.40;;
15398;SDS011;7797;51.428;6.756;2023-09-30T12:56:46;5.57;;;3.93;;
15398;SDS011;7797;51.428;6.756;2023-09-30T12:59:14;5.00;;;3.10;;
15398;SDS011;7797;51.428;6.756;2023-09-30T13:01:41;5.03;;;3.63;;
15398;SDS011;7797;51.428;6.756;2023-09-30T13:04:11;5.83;;;3.70;;
15398;SDS011;7797;51.428;6.756;2023-09-30T13:06:59;3.80;;;3.40;;
15398;SDS011;7797;51.428;6.756;2023-09-30T13:09:26;4.97;;;2.90;;
15398;SDS011;7797;51.428;6.756;2023-09-30T13:11:53;5.80;;;2.57;;
15398;SDS011;7797;51.428;6.756;2023-09-30T13:14:20;3.00;;;2.30;;
15398;SDS011;7797;51.428;6.756;2023-09-30T13:16:47;5.17;;;2.40;;
15398;SDS011;7797;51.428;6.756;2023-09-30T13:19:15;3.73;;;2.47;;
15398;SDS011;7797;51.428;6.756;2023-09-30T13:21:48;3.00;;;2.40;;
15398;SDS011;7797;51.428;6.756;2023-09-30T13:24:17;2.40;;;2.20;;
15398;SDS011;7797;51.428;6.756;2023-09-30T13:26:48;3.27;;;2.60;;
15398;SDS011;7797;51.428;6.756;2023-09-30T13:29:15;3.40;;;2.67;;
15398;SDS011;7797;51.428;6.756;2023-09-30T13:31:44;3.10;;;2.80;;
15398;SDS011;7797;51.428;6.756;2023-09-30T13:34:12;3.87;;;3.00;;
15398;SDS011;7797;51.428;6.756;2023-09-30T13:36:38;6.60;;;3.07;;
15398;SDS011;7797;51.428;6.756;2023-09-30T13:39:06;4.53;;;3.00;;
15398;SDS011;7797;51.428;6.756;2023-09-30T13:41:33;3.10;;;2.70;;
15398;SDS011;7797;51.428;6.756;2023-09-30T13:44:02;4.57;;;3.47;;
15398;SDS011;7797;51.428;6.756;2023-09-30T13:46:29;3.83;;;3.10;;
15398;SDS011;7797;51.428;6.756;2023-09-30T13:48:57;3.97;;;2.97;;
15398;SDS011;7797;51.428;6.756;2023-09-30T13:51:24;3.67;;;2.63;;
15398;SDS011;7797;51.428;6.756;2023-09-30T13:53:52;3.07;;;2.53;;
15398;SDS011;7797;51.428;6.756;2023-09-30T13:56:19;2.83;;;2.63;;
15398;SDS011;7797;51.428;6.756;2023-09-30T13:58:47;3.63;;;2.60;;
15398;SDS011;7797;51.428;6.756;2023-09-30T14:01:18;2.67;;;2.47;;
15398;SDS011;7797;51.428;6.756;2023-09-30T14:03:46;5.60;;;3.23;;
15398;SDS011;7797;51.428;6.756;2023-09-30T14:06:14;4.07;;;3.27;;
15398;SDS011;7797;51.428;6.756;2023-09-30T14:08:41;3.00;;;2.70;;
15398;SDS011;7797;51.428;6.756;2023-09-30T14:11:11;4.40;;;2.77;;
15398;SDS011;7797;51.428;6.756;2023-09-30T14:13:38;3.83;;;2.63;;
15398;SDS011;7797;51.428;6.756;2023-09-30T14:16:06;5.17;;;3.27;;
15398;SDS011;7797;51.428;6.756;2023-09-30T14:18:33;4.57;;;3.10;;
15398;SDS011;7797;51.428;6.756;2023-09-30T14:21:03;5.10;;;3.20;;
15398;SDS011;7797;51.428;6.756;2023-09-30T14:23:30;9.13;;;3.53;;
15398;SDS011;7797;51.428;6.756;2023-09-30T14:25:57;3.53;;;2.80;;
15398;SDS011;7797;51.428;6.756;2023-09-30T14:28:26;5.53;;;3.40;;
15398;SDS011;7797;51.428;6.756;2023-09-30T14:30:53;4.23;;;3.00;;
15398;SDS011;7797;51.428;6.756;2023-09-30T14:33:20;4.67;;;3.27;;
15398;SDS011;7797;51.428;6.756;2023-09-30T14:35:47;3.80;;;3.20;;
15398;SDS011;7797;51.428;6.756;2023-09-30T14:38:16;3.33;;;3.03;;
15398;SDS011;7797;51.428;6.756;2023-09-30T14:40:43;3.90;;;3.23;;
15398;SDS011;7797;51.428;6.756;2023-09-30T14:43:10;8.87;;;6.20;;
15398;SDS011;7797;51.428;6.756;2023-09-30T14:45:37;6.60;;;3.70;;
15398;SDS011;7797;51.428;6.756;2023-09-30T14:48:06;3.93;;;3.50;;
15398;SDS011;7797;51.428;6.756;2023-09-30T14:50:33;4.23;;;3.63;;
15398;SDS011;7797;51.428;6.756;2023-09-30T14:53:00;4.03;;;3.60;;
15398;SDS011;7797;51.428;6.756;2023-09-30T14:55:26;3.70;;;3.40;;
15398;SDS011;7797;51.428;6.756;2023-09-30T14:57:53;4.97;;;3.87;;
15398;SDS011;7797;51.428;6.756;2023-09-30T15:00:20;3.40;;;3.10;;
15398;SDS011;7797;51.428;6.756;2023-09-30T15:02:49;3.13;;;2.83;;
15398;SDS011;7797;51.428;6.756;2023-09-30T15:05:16;4.20;;;3.30;;
15398;SDS011;7797;51.428;6.756;2023-09-30T15:07:43;5.57;;;3.50;;
15398;SDS011;7797;51.428;6.756;2023-09-30T15:10:10;4.53;;;3.80;;
15398;SDS011;7797;51.428;6.756;2023-09-30T15:12:36;3.90;;;3.43;;
15398;SDS011;7797;51.428;6.756;2023-09-30T15:15:03;7.20;;;3.40;;
15398;SDS011;7797;51.428;6.756;2023-09-30T15:17:31;5.47;;;4.00;;
15398;SDS011;7797;51.428;6.756;2023-09-30T15:19:58;6.70;;;4.57;;
15398;SDS011;7797;51.428;6.756;2023-09-30T15:22:26;3.07;;;2.77;;
15398;SDS011;7797;51.428;6.756;2023-09-30T15:24:53;10.53;;;7.30;;
15398;SDS011;7797;51.428;6.756;2023-09-30T15:27:20;5.97;;;4.20;;